sensor_id;sensor_type;location;lat;lon;timestamp;pressure;altitude;pressure_sealevel;temperature;humidity
81033;BME280;70514;52.478;6.102;2024-03-07T00:01:27;102803.38;;;3.17;100.00
81033;BME280;70514;52.478;6.102;2024-03-07T00:03:54;102801.91;;;3.82;100.00
81033;BME280;70514;52.478;6.102;2024-03-07T00:06:22;102806.31;;;2.87;100.00
81033;BME280;70514;52.478;6.102;2024-03-07T00:08:50;102805.22;;;2.72;100.00
81033;BME280;70514;52.478;6.102;2024-03-07T00:11:17;102802.13;;;3.24;100.00
81033;BME280;70514;52.478;6.102;2024-03-07T00:13:46;102807.63;;;2.93;100.00
81033;BME280;70514;52.478;6.102;2024-03-07T00:16:14;102802.28;;;3.14;100.00
81033;BME280;70514;52.478;6.102;2024-03-07T00:18:41;102809.25;;;3.91;100.00
81033;BME280;70514;52.478;6.102;2024-03-07T00:21:09;102804.22;;;4.83;100.00
81033;BME280;70514;52.478;6.102;2024-03-07T00:23:38;102803.19;;;5.20;100.00
81033;BME280;70514;52.478;6.102;2024-03-07T00:26:06;102797.06;;;5.31;100.00
81033;BME280;70514;52.478;6.102;2024-03-07T00:28:35;102811.16;;;5.39;100.00
81033;BME280;70514;52.478;6.102;2024-03-07T00:31:07;102808.91;;;5.44;100.00
81033;BME280;70514;52.478;6.102;2024-03-07T00:33:34;102809.78;;;5.17;100.00
81033;BME280;70514;52.478;6.102;2024-03-07T00:36:22;102815.50;;;5.40;100.00
81033;BME280;70514;52.478;6.102;2024-03-07T00:38:50;102811.97;;;5.81;100.00
81033;BME280;70514;52.478;6.102;2024-03-07T00:41:17;102805.81;;;5.77;100.00
81033;BME280;70514;52.478;6.102;2024-03-07T00:43:45;102806.84;;;5.81;100.00
81033;BME280;70514;52.478;6.102;2024-03-07T00:46:12;102815.09;;;6.49;100.00
81033;BME280;70514;52.478;6.102;2024-03-07T00:48:40;102812.69;;;6.06;100.00
81033;BME280;70514;52.478;6.102;2024-03-07T00:51:08;102805.84;;;5.92;100.00
81033;BME280;70514;52.478;6.102;2024-03-07T00:53:36;102806.28;;;6.44;100.00
81033;BME280;70514;52.478;6.102;2024-03-07T00:56:04;102795.97;;;6.57;100.00
81033;BME280;70514;52.478;6.102;2024-03-07T00:58:32;102801.50;;;6.64;100.00
81033;BME280;70514;52.478;6.102;2024-03-07T01:01:00;102800.94;;;6.70;100.00
81033;BME280;70514;52.478;6.102;2024-03-07T01:03:27;102801.16;;;6.73;100.00
81033;BME280;70514;52.478;6.102;2024-03-07T01:05:55;102790.56;;;6.67;100.00
81033;BME280;70514;52.478;6.102;2024-03-07T01:08:23;102799.09;;;6.82;100.00
81033;BME280;70514;52.478;6.102;2024-03-07T01:10:50;102792.03;;;7.09;100.00
81033;BME280;70514;52.478;6.102;2024-03-07T01:13:18;102791.94;;;7.23;100.00
81033;BME280;70514;52.478;6.102;2024-03-07T01:15:50;102796.72;;;6.70;100.00
81033;BME280;70514;52.478;6.102;2024-03-07T01:18:18;102789.22;;;5.71;100.00
81033;BME280;70514;52.478;6.102;2024-03-07T01:20:45;102799.94;;;4.68;100.00
81033;BME280;70514;52.478;6.102;2024-03-07T01:23:13;102797.41;;;5.65;100.00
81033;BME280;70514;52.478;6.102;2024-03-07T01:25:41;102800.19;;;5.55;100.00
81033;BME280;70514;52.478;6.102;2024-03-07T01:28:09;102802.28;;;5.33;100.00
81033;BME280;70514;52.478;6.102;2024-03-07T01:30:39;102803.06;;;4.78;100.00
81033;BME280;70514;52.478;6.102;2024-03-07T01:33:07;102804.66;;;4.76;100.00
81033;BME280;70514;52.478;6.102;2024-03-07T01:35:35;102793.53;;;5.57;100.00
81033;BME280;70514;52.478;6.102;2024-03-07T01:38:02;102790.88;;;5.55;100.00
81033;BME280;70514;52.478;6.102;2024-03-07T01:40:30;102787.22;;;5.80;100.00
81033;BME280;70514;52.478;6.102;2024-03-07T01:42:58;102787.09;;;6.06;100.00
81033;BME280;70514;52.478;6.102;2024-03-07T01:45:25;102792.41;;;5.81;100.00
81033;BME280;70514;52.478;6.102;2024-03-07T01:47:53;102789.25;;;5.43;100.00
81033;BME280;70514;52.478;6.102;2024-03-07T01:50:23;102789.59;;;5.77;100.00
81033;BME280;70514;52.478;6.102;2024-03-07T01:52:51;102790.47;;;5.77;100.00
81033;BME280;70514;52.478;6.102;2024-03-07T01:55:19;102787.09;;;5.49;100.00
81033;BME280;70514;52.478;6.102;2024-03-07T01:57:46;102789.81;;;5.52;100.00
81033;BME280;70514;52.478;6.102;2024-03-07T02:00:14;102784.09;;;5.71;100.00
81033;BME280;70514;52.478;6.102;2024-03-07T02:02:42;102785.00;;;5.86;100.00
81033;BME280;70514;52.478;6.102;2024-03-07T02:05:10;102780.75;;;6.14;100.00
81033;BME280;70514;52.478;6.102;2024-03-07T02:07:38;102778.78;;;6.39;100.00
81033;BME280;70514;52.478;6.102;2024-03-07T02:10:06;102783.63;;;6.35;100.00
81033;BME280;70514;52.478;6.102;2024-03-07T02:12:34;102774.38;;;6.37;100.00
81033;BME280;70514;52.478;6.102;2024-03-07T02:15:01;102783.28;;;6.29;100.00
81033;BME280;70514;52.478;6.102;2024-03-07T02:17:30;102780.81;;;6.30;100.00
81033;BME280;70514;52.478;6.102;2024-03-07T02:19:58;102783.81;;;6.23;100.00
81033;BME280;70514;52.478;6.102;2024-03-07T02:22:26;102770.72;;;6.48;100.00
81033;BME280;70514;52.478;6.102;2024-03-07T02:24:54;102771.31;;;5.98;100.00
81033;BME280;70514;52.478;6.102;2024-03-07T02:27:21;102764.81;;;6.49;100.00
81033;BME280;70514;52.478;6.102;2024-03-07T02:29:49;102765.75;;;6.20;100.00
81033;BME280;70514;52.478;6.102;2024-03-07T02:32:18;102764.91;;;6.51;100.00
81033;BME280;70514;52.478;6.102;2024-03-07T02:34:46;102758.88;;;6.65;100.00
81033;BME280;70514;52.478;6.102;2024-03-07T02:37:14;102759.75;;;6.65;100.00
81033;BME280;70514;52.478;6.102;2024-03-07T02:39:42;102762.53;;;6.39;100.00
81033;BME280;70514;52.478;6.102;2024-03-07T02:42:09;102755.94;;;6.73;100.00
81033;BME280;70514;52.478;6.102;2024-03-07T02:44:37;102765.69;;;6.80;100.00
81033;BME280;70514;52.478;6.102;2024-03-07T02:47:05;102751.81;;;6.61;100.00
81033;BME280;70514;52.478;6.102;2024-03-07T02:49:33;102757.06;;;6.33;100.00
81033;BME280;70514;52.478;6.102;2024-03-07T02:52:02;102759.13;;;6.24;100.00
81033;BME280;70514;52.478;6.102;2024-03-07T02:54:29;102758.25;;;6.23;100.00
81033;BME280;70514;52.478;6.102;2024-03-07T02:56:57;102754.50;;;6.48;100.00
81033;BME280;70514;52.478;6.102;2024-03-07T02:59:25;102749.75;;;6.70;100.00
81033;BME280;70514;52.478;6.102;2024-03-07T03:01:52;102747.34;;;6.57;100.00
81033;BME280;70514;52.478;6.102;2024-03-07T03:04:20;102754.16;;;6.42;100.00
81033;BME280;70514;52.478;6.102;2024-03-07T03:06:47;102747.44;;;6.74;100.00
81033;BME280;70514;52.478;6.102;2024-03-07T03:09:15;102749.41;;;6.95;100.00
81033;BME280;70514;52.478;6.102;2024-03-07T03:11:44;102751.56;;;6.87;100.00
81033;BME280;70514;52.478;6.102;2024-03-07T03:14:12;102744.81;;;6.73;100.00
81033;BME280;70514;52.478;6.102;2024-03-07T03:16:41;102739.16;;;6.95;100.00
81033;BME280;70514;52.478;6.102;2024-03-07T03:19:15;102748.16;;;7.19;100.00
81033;BME280;70514;52.478;6.102;2024-03-07T03:21:42;102741.81;;;7.12;100.00
81033;BME280;70514;52.478;6.102;2024-03-07T03:24:10;102743.22;;;6.75;100.00
81033;BME280;70514;52.478;6.102;2024-03-07T03:26:38;102743.41;;;6.94;100.00
81033;BME280;70514;52.478;6.102;2024-03-07T03:29:05;102742.56;;;6.48;100.00
81033;BME280;70514;52.478;6.102;2024-03-07T03:31:33;102739.56;;;7.02;100.00
81033;BME280;70514;52.478;6.102;2024-03-07T03:34:01;102737.00;;;6.86;100.00
81033;BME280;70514;52.478;6.102;2024-03-07T03:36:28;102740.56;;;6.43;95.40
81033;BME280;70514;52.478;6.102;2024-03-07T03:38:56;102736.19;;;6.87;100.00
81033;BME280;70514;52.478;6.102;2024-03-07T03:41:24;102735.09;;;6.98;100.00
81033;BME280;70514;52.478;6.102;2024-03-07T03:43:52;102732.88;;;7.04;100.00
81033;BME280;70514;52.478;6.102;2024-03-07T03:46:20;102733.00;;;6.91;100.00
81033;BME280;70514;52.478;6.102;2024-03-07T03:48:50;102734.28;;;6.37;100.00
81033;BME280;70514;52.478;6.102;2024-03-07T03:51:18;102725.34;;;6.60;100.00
81033;BME280;70514;52.478;6.102;2024-03-07T03:53:45;102733.06;;;6.46;100.00
81033;BME280;70514;52.478;6.102;2024-03-07T03:56:13;102738.94;;;5.99;100.00
81033;BME280;70514;52.478;6.102;2024-03-07T03:58:43;102732.13;;;6.29;100.00
81033;BME280;70514;52.478;6.102;2024-03-07T04:01:10;102731.25;;;6.28;100.00
81033;BME280;70514;52.478;6.102;2024-03-07T04:03:42;102736.28;;;5.83;100.00
81033;BME280;70514;52.478;6.102;2024-03-07T04:06:10;102737.19;;;5.55;100.00
81033;BME280;70514;52.478;6.102;2024-03-07T04:08:37;102728.81;;;6.77;100.00
81033;BME280;70514;52.478;6.102;2024-03-07T04:11:05;102734.28;;;6.37;100.00
81033;BME280;70514;52.478;6.102;2024-03-07T04:13:37;102737.69;;;5.78;100.00
81033;BME280;70514;52.478;6.102;2024-03-07T04:16:05;102731.94;;;5.67;100.00
81033;BME280;70514;52.478;6.102;2024-03-07T04:18:33;102728.06;;;5.74;100.00
81033;BME280;70514;52.478;6.102;2024-03-07T04:21:01;102730.34;;;5.12;100.00
81033;BME280;70514;52.478;6.102;2024-03-07T04:23:28;102738.56;;;5.78;100.00
81033;BME280;70514;52.478;6.102;2024-03-07T04:25:56;102725.94;;;5.67;100.00
81033;BME280;70514;52.478;6.102;2024-03-07T04:28:23;102721.28;;;6.18;100.00
81033;BME280;70514;52.478;6.102;2024-03-07T04:30:51;102712.69;;;6.47;100.00
81033;BME280;70514;52.478;6.102;2024-03-07T04:33:20;102725.72;;;6.21;100.00
81033;BME280;70514;52.478;6.102;2024-03-07T04:35:48;102723.50;;;6.12;100.00
81033;BME280;70514;52.478;6.102;2024-03-07T04:38:16;102730.28;;;6.26;100.00
81033;BME280;70514;52.478;6.102;2024-03-07T04:40:44;102720.78;;;6.55;100.00
81033;BME280;70514;52.478;6.102;2024-03-07T04:43:11;102724.78;;;6.35;100.00
81033;BME280;70514;52.478;6.102;2024-03-07T04:45:39;102723.81;;;6.33;100.00
81033;BME280;70514;52.478;6.102;2024-03-07T04:48:07;102723.66;;;6.61;100.00
81033;BME280;70514;52.478;6.102;2024-03-07T04:50:36;102726.25;;;6.15;100.00
81033;BME280;70514;52.478;6.102;2024-03-07T04:53:03;102723.06;;;6.19;100.00
81033;BME280;70514;52.478;6.102;2024-03-07T04:55:31;102730.09;;;6.85;100.00
81033;BME280;70514;52.478;6.102;2024-03-07T04:57:59;102724.38;;;6.58;100.00
81033;BME280;70514;52.478;6.102;2024-03-07T05:00:26;102726.13;;;7.06;100.00
81033;BME280;70514;52.478;6.102;2024-03-07T05:02:56;102722.38;;;6.69;100.00
81033;BME280;70514;52.478;6.102;2024-03-07T05:05:24;102724.97;;;6.85;100.00
81033;BME280;70514;52.478;6.102;2024-03-07T05:07:54;102726.72;;;6.70;100.00
81033;BME280;70514;52.478;6.102;2024-03-07T05:10:24;102733.69;;;6.42;100.00
81033;BME280;70514;52.478;6.102;2024-03-07T05:12:52;102738.34;;;6.49;100.00
81033;BME280;70514;52.478;6.102;2024-03-07T05:15:20;102741.19;;;6.38;100.00
81033;BME280;70514;52.478;6.102;2024-03-07T05:17:47;102740.84;;;6.78;100.00
81033;BME280;70514;52.478;6.102;2024-03-07T05:20:15;102748.41;;;6.46;100.00
81033;BME280;70514;52.478;6.102;2024-03-07T05:22:43;102747.19;;;6.39;100.00
81033;BME280;70514;52.478;6.102;2024-03-07T05:25:19;102748.81;;;6.08;100.00
81033;BME280;70514;52.478;6.102;2024-03-07T05:27:46;102750.41;;;6.66;100.00
81033;BME280;70514;52.478;6.102;2024-03-07T05:30:17;102747.66;;;6.03;100.00
81033;BME280;70514;52.478;6.102;2024-03-07T05:32:45;102744.97;;;6.76;100.00
81033;BME280;70514;52.478;6.102;2024-03-07T05:35:12;102754.22;;;6.58;100.00
81033;BME280;70514;52.478;6.102;2024-03-07T05:37:41;102746.00;;;6.49;100.00
81033;BME280;70514;52.478;6.102;2024-03-07T05:40:14;102755.09;;;5.98;98.66
81033;BME280;70514;52.478;6.102;2024-03-07T05:42:42;102749.78;;;6.10;100.00
81033;BME280;70514;52.478;6.102;2024-03-07T05:45:10;102747.03;;;6.07;100.00
81033;BME280;70514;52.478;6.102;2024-03-07T05:47:38;102750.91;;;6.29;100.00
81033;BME280;70514;52.478;6.102;2024-03-07T05:50:05;102747.06;;;6.21;100.00
81033;BME280;70514;52.478;6.102;2024-03-07T05:52:35;102739.09;;;5.73;100.00
81033;BME280;70514;52.478;6.102;2024-03-07T05:55:03;102746.81;;;5.60;100.00
81033;BME280;70514;52.478;6.102;2024-03-07T05:57:31;102744.75;;;6.26;100.00
81033;BME280;70514;52.478;6.102;2024-03-07T05:59:58;102741.19;;;6.38;99.50
81033;BME280;70514;52.478;6.102;2024-03-07T06:02:26;102741.25;;;7.18;100.00
81033;BME280;70514;52.478;6.102;2024-03-07T06:04:55;102740.47;;;7.03;99.21
81033;BME280;70514;52.478;6.102;2024-03-07T06:07:22;102738.09;;;6.75;99.48
81033;BME280;70514;52.478;6.102;2024-03-07T06:09:50;102743.09;;;6.26;100.00
81033;BME280;70514;52.478;6.102;2024-03-07T06:12:17;102755.31;;;6.17;100.00
81033;BME280;70514;52.478;6.102;2024-03-07T06:14:53;102748.47;;;6.02;100.00
81033;BME280;70514;52.478;6.102;2024-03-07T06:17:22;102744.38;;;6.34;100.00
81033;BME280;70514;52.478;6.102;2024-03-07T06:19:50;102748.47;;;6.02;97.75
81033;BME280;70514;52.478;6.102;2024-03-07T06:22:18;102754.78;;;5.79;100.00
81033;BME280;70514;52.478;6.102;2024-03-07T06:24:46;102757.66;;;5.70;100.00
81033;BME280;70514;52.478;6.102;2024-03-07T06:27:13;102755.94;;;6.13;100.00
81033;BME280;70514;52.478;6.102;2024-03-07T06:29:55;102757.81;;;6.61;100.00
81033;BME280;70514;52.478;6.102;2024-03-07T06:32:22;102755.72;;;6.85;100.00
81033;BME280;70514;52.478;6.102;2024-03-07T06:34:51;102768.94;;;6.16;100.00
81033;BME280;70514;52.478;6.102;2024-03-07T06:37:20;102764.69;;;6.31;100.00
81033;BME280;70514;52.478;6.102;2024-03-07T06:39:47;102766.41;;;6.32;100.00
81033;BME280;70514;52.478;6.102;2024-03-07T06:42:15;102765.22;;;6.11;100.00
81033;BME280;70514;52.478;6.102;2024-03-07T06:44:43;102757.47;;;5.95;100.00
81033;BME280;70514;52.478;6.102;2024-03-07T06:47:11;102769.25;;;6.22;100.00
81033;BME280;70514;52.478;6.102;2024-03-07T06:49:39;102762.47;;;6.08;100.00
81033;BME280;70514;52.478;6.102;2024-03-07T06:52:07;102756.50;;;6.84;100.00
81033;BME280;70514;52.478;6.102;2024-03-07T06:54:36;102758.00;;;7.28;100.00
81033;BME280;70514;52.478;6.102;2024-03-07T06:57:03;102762.22;;;5.89;93.54
81033;BME280;70514;52.478;6.102;2024-03-07T06:59:31;102755.09;;;7.38;100.00
81033;BME280;70514;52.478;6.102;2024-03-07T07:01:59;102760.97;;;6.41;100.00
81033;BME280;70514;52.478;6.102;2024-03-07T07:04:26;102769.66;;;4.88;97.32
81033;BME280;70514;52.478;6.102;2024-03-07T07:06:59;102770.91;;;4.53;100.00
81033;BME280;70514;52.478;6.102;2024-03-07T07:09:28;102764.34;;;4.98;100.00
81033;BME280;70514;52.478;6.102;2024-03-07T07:11:57;102767.53;;;6.21;100.00
81033;BME280;70514;52.478;6.102;2024-03-07T07:14:25;102777.16;;;5.40;97.74
81033;BME280;70514;52.478;6.102;2024-03-07T07:16:52;102776.63;;;5.31;100.00
81033;BME280;70514;52.478;6.102;2024-03-07T07:19:20;102782.75;;;4.53;100.00
81033;BME280;70514;52.478;6.102;2024-03-07T07:21:48;102778.66;;;4.55;100.00
81033;BME280;70514;52.478;6.102;2024-03-07T07:24:22;102776.69;;;5.88;100.00
81033;BME280;70514;52.478;6.102;2024-03-07T07:26:51;102779.84;;;6.28;100.00
81033;BME280;70514;52.478;6.102;2024-03-07T07:29:19;102774.13;;;6.63;100.00
81033;BME280;70514;52.478;6.102;2024-03-07T07:31:47;102775.59;;;7.05;100.00
81033;BME280;70514;52.478;6.102;2024-03-07T07:34:14;102769.28;;;7.15;97.86
81033;BME280;70514;52.478;6.102;2024-03-07T07:36:42;102774.38;;;6.22;97.02
81033;BME280;70514;52.478;6.102;2024-03-07T07:39:10;102771.88;;;5.80;100.00
81033;BME280;70514;52.478;6.102;2024-03-07T07:41:44;102774.69;;;5.70;100.00
81033;BME280;70514;52.478;6.102;2024-03-07T07:44:12;102769.19;;;5.49;100.00
81033;BME280;70514;52.478;6.102;2024-03-07T07:46:41;102768.91;;;6.31;100.00
81033;BME280;70514;52.478;6.102;2024-03-07T07:49:08;102762.09;;;7.24;100.00
81033;BME280;70514;52.478;6.102;2024-03-07T07:51:36;102759.63;;;6.78;100.00
81033;BME280;70514;52.478;6.102;2024-03-07T07:54:04;102764.09;;;6.06;100.00
81033;BME280;70514;52.478;6.102;2024-03-07T07:56:31;102759.75;;;6.65;100.00
81033;BME280;70514;52.478;6.102;2024-03-07T07:59:00;102762.38;;;6.07;100.00
81033;BME280;70514;52.478;6.102;2024-03-07T08:01:27;102757.63;;;6.89;100.00
81033;BME280;70514;52.478;6.102;2024-03-07T08:03:55;102750.91;;;6.91;97.63
81033;BME280;70514;52.478;6.102;2024-03-07T08:06:22;102747.09;;;6.99;100.00
81033;BME280;70514;52.478;6.102;2024-03-07T08:08:54;102755.81;;;6.56;100.00
81033;BME280;70514;52.478;6.102;2024-03-07T08:11:22;102754.28;;;6.59;100.00
81033;BME280;70514;52.478;6.102;2024-03-07T08:13:49;102745.78;;;6.29;99.73
81033;BME280;70514;52.478;6.102;2024-03-07T08:16:18;102751.97;;;6.33;100.00
81033;BME280;70514;52.478;6.102;2024-03-07T08:18:45;102753.75;;;7.12;100.00
81033;BME280;70514;52.478;6.102;2024-03-07T08:21:13;102758.78;;;7.10;100.00
81033;BME280;70514;52.478;6.102;2024-03-07T08:23:41;102756.97;;;7.24;100.00
81033;BME280;70514;52.478;6.102;2024-03-07T08:26:09;102753.84;;;7.30;100.00
81033;BME280;70514;52.478;6.102;2024-03-07T08:28:36;102755.28;;;7.08;100.00
81033;BME280;70514;52.478;6.102;2024-03-07T08:31:05;102759.44;;;7.39;100.00
81033;BME280;70514;52.478;6.102;2024-03-07T08:33:32;102754.97;;;7.35;100.00
81033;BME280;70514;52.478;6.102;2024-03-07T08:36:01;102747.34;;;7.86;100.00
81033;BME280;70514;52.478;6.102;2024-03-07T08:38:28;102758.78;;;7.93;100.00
81033;BME280;70514;52.478;6.102;2024-03-07T08:40:56;102748.28;;;8.22;98.95
81033;BME280;70514;52.478;6.102;2024-03-07T08:43:24;102743.91;;;8.03;93.62
81033;BME280;70514;52.478;6.102;2024-03-07T08:45:52;102744.78;;;7.86;95.39
81033;BME280;70514;52.478;6.102;2024-03-07T08:48:20;102744.16;;;7.24;96.11
81033;BME280;70514;52.478;6.102;2024-03-07T08:50:48;102744.38;;;7.45;98.63
81033;BME280;70514;52.478;6.102;2024-03-07T08:53:15;102739.47;;;7.65;100.00
81033;BME280;70514;52.478;6.102;2024-03-07T08:55:43;102734.72;;;8.60;96.72
81033;BME280;70514;52.478;6.102;2024-03-07T08:58:10;102738.41;;;8.65;97.54
81033;BME280;70514;52.478;6.102;2024-03-07T09:00:38;102728.69;;;8.77;93.04
81033;BME280;70514;52.478;6.102;2024-03-07T09:03:06;102727.47;;;8.88;85.74
81033;BME280;70514;52.478;6.102;2024-03-07T09:05:39;102723.44;;;9.32;92.15
81033;BME280;70514;52.478;6.102;2024-03-07T09:08:08;102725.34;;;9.17;87.86
81033;BME280;70514;52.478;6.102;2024-03-07T09:10:35;102729.28;;;9.68;89.39
81033;BME280;70514;52.478;6.102;2024-03-07T09:13:04;102720.38;;;9.80;89.80
81033;BME280;70514;52.478;6.102;2024-03-07T09:15:33;102716.00;;;9.00;84.67
81033;BME280;70514;52.478;6.102;2024-03-07T09:18:01;102721.31;;;9.82;87.21
81033;BME280;70514;52.478;6.102;2024-03-07T09:20:31;102713.31;;;10.16;88.93
81033;BME280;70514;52.478;6.102;2024-03-07T09:22:59;102717.31;;;9.89;81.60
81033;BME280;70514;52.478;6.102;2024-03-07T09:25:27;102714.31;;;10.42;84.99
81033;BME280;70514;52.478;6.102;2024-03-07T09:27:55;102714.69;;;10.74;75.91
81033;BME280;70514;52.478;6.102;2024-03-07T09:30:23;102716.56;;;9.92;74.68
81033;BME280;70514;52.478;6.102;2024-03-07T09:32:55;102719.94;;;9.91;76.94
81033;BME280;70514;52.478;6.102;2024-03-07T09:35:23;102709.59;;;10.53;75.73
81033;BME280;70514;52.478;6.102;2024-03-07T09:37:51;102713.88;;;10.75;77.79
81033;BME280;70514;52.478;6.102;2024-03-07T09:40:21;102709.03;;;10.60;70.33
81033;BME280;70514;52.478;6.102;2024-03-07T09:42:53;102708.16;;;11.05;75.63
81033;BME280;70514;52.478;6.102;2024-03-07T09:45:25;102697.63;;;11.23;72.10
81033;BME280;70514;52.478;6.102;2024-03-07T09:47:55;102704.25;;;10.93;72.98
81033;BME280;70514;52.478;6.102;2024-03-07T09:50:23;102704.53;;;10.78;71.76
81033;BME280;70514;52.478;6.102;2024-03-07T09:52:53;102703.31;;;10.91;67.84
81033;BME280;70514;52.478;6.102;2024-03-07T09:55:22;102706.84;;;10.71;73.92
81033;BME280;70514;52.478;6.102;2024-03-07T09:57:54;102713.66;;;9.63;71.48
81033;BME280;70514;52.478;6.102;2024-03-07T10:00:24;102714.22;;;9.56;73.93
81033;BME280;70514;52.478;6.102;2024-03-07T10:05:32;102712.75;;;9.23;79.03
81033;BME280;70514;52.478;6.102;2024-03-07T10:08:00;102713.84;;;9.09;80.79
81033;BME280;70514;52.478;6.102;2024-03-07T10:10:29;102721.34;;;8.85;80.55
81033;BME280;70514;52.478;6.102;2024-03-07T10:12:58;102715.31;;;8.84;76.78
81033;BME280;70514;52.478;6.102;2024-03-07T10:15:30;102712.63;;;9.20;83.13
81033;BME280;70514;52.478;6.102;2024-03-07T10:17:59;102722.16;;;9.03;76.83
81033;BME280;70514;52.478;6.102;2024-03-07T10:20:30;102721.88;;;7.73;79.41
81033;BME280;70514;52.478;6.102;2024-03-07T10:22:57;102731.34;;;7.74;80.97
81033;BME280;70514;52.478;6.102;2024-03-07T10:25:26;102717.59;;;8.78;87.63
81033;BME280;70514;52.478;6.102;2024-03-07T10:27:56;102712.34;;;8.75;76.35
81033;BME280;70514;52.478;6.102;2024-03-07T10:30:26;102709.63;;;9.30;86.44
81033;BME280;70514;52.478;6.102;2024-03-07T10:32:56;102710.06;;;9.20;82.36
81033;BME280;70514;52.478;6.102;2024-03-07T10:35:25;102706.19;;;9.10;78.29
81033;BME280;70514;52.478;6.102;2024-03-07T10:37:54;102703.47;;;8.69;82.58
81033;BME280;70514;52.478;6.102;2024-03-07T10:40:22;102697.25;;;8.46;78.24
81033;BME280;70514;52.478;6.102;2024-03-07T10:42:50;102691.94;;;9.17;79.44
81033;BME280;70514;52.478;6.102;2024-03-07T10:45:21;102684.97;;;9.96;80.99
81033;BME280;70514;52.478;6.102;2024-03-07T10:47:52;102695.66;;;9.84;80.69
81033;BME280;70514;52.478;6.102;2024-03-07T10:50:32;102698.25;;;8.86;74.91
81033;BME280;70514;52.478;6.102;2024-03-07T10:53:10;102698.06;;;8.82;76.81
81033;BME280;70514;52.478;6.102;2024-03-07T10:55:53;102697.84;;;8.77;77.29
81033;BME280;70514;52.478;6.102;2024-03-07T11:00:48;102685.16;;;10.00;82.88
81033;BME280;70514;52.478;6.102;2024-03-07T11:03:16;102682.84;;;10.06;79.11
81033;BME280;70514;52.478;6.102;2024-03-07T11:05:48;102687.53;;;10.37;79.66
81033;BME280;70514;52.478;6.102;2024-03-07T11:08:17;102678.84;;;10.57;78.59
81033;BME280;70514;52.478;6.102;2024-03-07T11:10:46;102683.19;;;11.04;76.29
81033;BME280;70514;52.478;6.102;2024-03-07T11:13:17;102676.56;;;10.87;76.20
81033;BME280;70514;52.478;6.102;2024-03-07T11:15:45;102680.94;;;10.68;79.25
81033;BME280;70514;52.478;6.102;2024-03-07T11:18:14;102667.00;;;11.32;76.88
81033;BME280;70514;52.478;6.102;2024-03-07T11:20:43;102666.75;;;11.50;75.41
81033;BME280;70514;52.478;6.102;2024-03-07T11:23:29;102671.53;;;11.39;70.75
81033;BME280;70514;52.478;6.102;2024-03-07T11:26:01;102674.22;;;11.42;70.88
81033;BME280;70514;52.478;6.102;2024-03-07T11:28:31;102674.38;;;10.09;74.04
81033;BME280;70514;52.478;6.102;2024-03-07T11:33:37;102681.66;;;10.63;73.76
81033;BME280;70514;52.478;6.102;2024-03-07T11:36:08;102680.38;;;10.75;67.54
81033;BME280;70514;52.478;6.102;2024-03-07T11:38:37;102668.19;;;9.83;70.62
81033;BME280;70514;52.478;6.102;2024-03-07T11:41:06;102655.41;;;10.50;76.51
81033;BME280;70514;52.478;6.102;2024-03-07T11:43:36;102658.47;;;10.86;68.06
81033;BME280;70514;52.478;6.102;2024-03-07T11:46:04;102655.94;;;11.11;71.62
81033;BME280;70514;52.478;6.102;2024-03-07T11:48:39;102651.78;;;11.90;64.24
81033;BME280;70514;52.478;6.102;2024-03-07T11:51:12;102652.75;;;11.69;65.72
81033;BME280;70514;52.478;6.102;2024-03-07T11:53:40;102651.53;;;10.61;68.22
81033;BME280;70514;52.478;6.102;2024-03-07T11:56:08;102626.81;;;11.64;69.22
81033;BME280;70514;52.478;6.102;2024-03-07T11:58:44;102636.03;;;11.58;68.75
81033;BME280;70514;52.478;6.102;2024-03-07T12:01:12;102640.75;;;11.19;67.38
81033;BME280;70514;52.478;6.102;2024-03-07T12:03:41;102629.25;;;11.34;69.50
81033;BME280;70514;52.478;6.102;2024-03-07T12:06:10;102618.03;;;11.84;67.98
81033;BME280;70514;52.478;6.102;2024-03-07T12:08:40;102620.50;;;11.56;64.22
81033;BME280;70514;52.478;6.102;2024-03-07T12:11:09;102605.44;;;12.23;69.75
81033;BME280;70514;52.478;6.102;2024-03-07T12:13:43;102607.38;;;12.30;63.73
81033;BME280;70514;52.478;6.102;2024-03-07T12:16:11;102612.22;;;12.20;64.41
81033;BME280;70514;52.478;6.102;2024-03-07T12:18:38;102601.09;;;12.51;70.25
81033;BME280;70514;52.478;6.102;2024-03-07T12:21:06;102602.03;;;12.53;63.77
81033;BME280;70514;52.478;6.102;2024-03-07T12:23:40;102597.31;;;11.83;64.04
81033;BME280;70514;52.478;6.102;2024-03-07T12:26:08;102605.91;;;11.06;67.97
81033;BME280;70514;52.478;6.102;2024-03-07T12:28:38;102602.38;;;9.90;71.34
81033;BME280;70514;52.478;6.102;2024-03-07T12:31:06;102594.47;;;9.85;72.46
81033;BME280;70514;52.478;6.102;2024-03-07T12:33:43;102588.09;;;9.53;72.56
81033;BME280;70514;52.478;6.102;2024-03-07T12:36:15;102588.88;;;9.11;73.90
81033;BME280;70514;52.478;6.102;2024-03-07T12:38:44;102583.22;;;9.81;78.47
81033;BME280;70514;52.478;6.102;2024-03-07T12:41:12;102576.97;;;9.33;73.96
81033;BME280;70514;52.478;6.102;2024-03-07T12:43:44;102574.28;;;9.51;75.08
81033;BME280;70514;52.478;6.102;2024-03-07T12:46:16;102569.56;;;10.05;75.82
81033;BME280;70514;52.478;6.102;2024-03-07T12:48:45;102570.66;;;8.85;80.65
81033;BME280;70514;52.478;6.102;2024-03-07T12:51:14;102568.97;;;8.67;79.73
81033;BME280;70514;52.478;6.102;2024-03-07T12:53:46;102569.72;;;8.64;77.57
81033;BME280;70514;52.478;6.102;2024-03-07T12:56:15;102559.19;;;8.58;84.41
81033;BME280;70514;52.478;6.102;2024-03-07T12:58:47;102564.84;;;8.51;79.33
81033;BME280;70514;52.478;6.102;2024-03-07T13:01:18;102552.09;;;9.32;81.95
81033;BME280;70514;52.478;6.102;2024-03-07T13:03:47;102551.91;;;9.71;79.13
81033;BME280;70514;52.478;6.102;2024-03-07T13:06:16;102556.81;;;8.63;79.30
81033;BME280;70514;52.478;6.102;2024-03-07T13:08:49;102559.53;;;8.86;78.36